Terminal Aerodrome Forecast
Issued by NWS Amarillo, TX

Home | Current Version | Previous Version | Text Only | Print | Product List | Glossary On
Versions: 1 2 3 4 5 6 7 8 9 10 11 12 13 14 15 16 17 18 19 20 21
000
FTUS44 KAMA 041700
TAFAMA
TAF
KAMA 041733Z 0418/0518 18011KT P6SM FEW070 SCT200
     FM042000 18015G22KT P6SM BKN080
     FM050600 20012KT P6SM SCT080 BKN200
     FM051400 20017G25KT P6SM SCT250=

USA.gov is the U.S. government's official web portal to all federal, state and local government web resources and services.